sensor_id;sensor_type;location;lat;lon;timestamp;pressure;altitude;pressure_sealevel;temperature;humidity
77079;BME280;66004;55.096;38.760;2023-03-01T08:34:31;99464.22;;;-3.04;53.70
77079;BME280;66004;55.096;38.760;2023-03-01T08:36:57;99469.38;;;-3.18;53.84
77079;BME280;66004;55.096;38.760;2023-03-01T08:39:22;99475.06;;;-3.25;53.57
77079;BME280;66004;55.096;38.760;2023-03-01T08:41:48;99473.94;;;-3.29;54.16
77079;BME280;66004;55.096;38.760;2023-03-01T08:44:14;99487.13;;;-3.31;53.92
77079;BME280;66004;55.096;38.760;2023-03-01T08:46:42;99488.72;;;-3.40;54.00
77079;BME280;66004;55.096;38.760;2023-03-01T08:49:11;99490.84;;;-3.47;54.01
77079;BME280;66004;55.096;38.760;2023-03-01T09:31:59;99496.72;;;-3.01;52.57
77079;BME280;66004;55.096;38.760;2023-03-01T09:34:25;99501.63;;;-3.08;52.87
77079;BME280;66004;55.096;38.760;2023-03-01T09:36:51;99491.66;;;-3.15;52.71
77079;BME280;66004;55.096;38.760;2023-03-01T09:39:17;99507.63;;;-3.11;52.64
77079;BME280;66004;55.096;38.760;2023-03-01T09:41:48;99508.16;;;-3.15;52.84
77079;BME280;66004;55.096;38.760;2023-03-01T09:44:23;99496.19;;;-2.98;53.11
77079;BME280;66004;55.096;38.760;2023-03-01T09:46:52;99509.47;;;-2.90;52.28
77079;BME280;66004;55.096;38.760;2023-03-01T09:49:32;99491.22;;;-3.01;52.78
77079;BME280;66004;55.096;38.760;2023-03-01T09:54:54;99498.31;;;-2.68;52.83
77079;BME280;66004;55.096;38.760;2023-03-01T09:57:28;99482.09;;;-2.64;52.93
77079;BME280;66004;55.096;38.760;2023-03-01T10:02:49;99508.69;;;-2.32;52.42
77079;BME280;66004;55.096;38.760;2023-03-01T10:05:41;99500.34;;;-2.48;52.29
77079;BME280;66004;55.096;38.760;2023-03-01T10:08:26;99496.50;;;-2.47;52.12
77079;BME280;66004;55.096;38.760;2023-03-01T10:10:53;99496.75;;;-2.53;52.17
77079;BME280;66004;55.096;38.760;2023-03-01T10:13:37;99493.72;;;-2.52;52.15
77079;BME280;66004;55.096;38.760;2023-03-01T10:16:16;99496.78;;;-2.43;52.51
77079;BME280;66004;55.096;38.760;2023-03-01T10:18:55;99490.16;;;-2.47;51.94
77079;BME280;66004;55.096;38.760;2023-03-01T10:21:26;99477.19;;;-2.52;52.31
77079;BME280;66004;55.096;38.760;2023-03-01T10:23:52;99473.38;;;-2.46;52.48
77079;BME280;66004;55.096;38.760;2023-03-01T10:26:23;99497.16;;;-2.29;52.05
77079;BME280;66004;55.096;38.760;2023-03-01T10:29:08;99489.97;;;-2.30;52.15
77079;BME280;66004;55.096;38.760;2023-03-01T10:31:40;99485.56;;;-2.26;52.69
77079;BME280;66004;55.096;38.760;2023-03-01T10:36:39;99480.63;;;-2.29;52.52
77079;BME280;66004;55.096;38.760;2023-03-01T10:39:13;99496.63;;;-2.21;51.68
77079;BME280;66004;55.096;38.760;2023-03-01T10:42:11;99497.16;;;-2.29;52.03
77079;BME280;66004;55.096;38.760;2023-03-01T10:44:46;99498.78;;;-2.28;52.40
77079;BME280;66004;55.096;38.760;2023-03-01T10:47:15;99500.78;;;-2.13;52.43
77079;BME280;66004;55.096;38.760;2023-03-01T10:52:29;99493.94;;;-2.01;51.86
77079;BME280;66004;55.096;38.760;2023-03-01T10:55:02;99498.38;;;-1.94;52.16
77079;BME280;66004;55.096;38.760;2023-03-01T10:57:34;99506.69;;;-1.84;52.33
77079;BME280;66004;55.096;38.760;2023-03-01T11:00:46;99492.94;;;-1.69;52.19
77079;BME280;66004;55.096;38.760;2023-03-01T11:03:14;99503.16;;;-1.54;51.81
77079;BME280;66004;55.096;38.760;2023-03-01T11:11:26;99495.16;;;-1.50;51.44
77079;BME280;66004;55.096;38.760;2023-03-01T11:14:00;99493.50;;;-1.36;51.45
77079;BME280;66004;55.096;38.760;2023-03-01T11:19:12;99499.03;;;-1.21;50.90
77079;BME280;66004;55.096;38.760;2023-03-01T11:24:12;99505.69;;;-0.96;49.46
77079;BME280;66004;55.096;38.760;2023-03-01T11:26:41;99511.72;;;-0.84;49.76
77079;BME280;66004;55.096;38.760;2023-03-01T11:32:03;99511.72;;;-0.73;47.63
77079;BME280;66004;55.096;38.760;2023-03-01T11:37:03;99512.28;;;-0.87;45.87
77079;BME280;66004;55.096;38.760;2023-03-01T11:39:43;99518.91;;;-0.83;46.36
77079;BME280;66004;55.096;38.760;2023-03-01T11:42:25;99522.75;;;-0.89;45.70
77079;BME280;66004;55.096;38.760;2023-03-01T11:44:55;99521.69;;;-0.88;46.75
77079;BME280;66004;55.096;38.760;2023-03-01T11:50:23;99533.81;;;-1.04;46.91
77079;BME280;66004;55.096;38.760;2023-03-01T12:01:21;99550.94;;;-0.87;46.44
77079;BME280;66004;55.096;38.760;2023-03-01T12:20:21;99523.34;;;-1.28;47.26
77079;BME280;66004;55.096;38.760;2023-03-01T12:25:55;99526.09;;;-1.02;47.78
77079;BME280;66004;55.096;38.760;2023-03-01T12:42:33;99548.69;;;-1.36;47.72
77079;BME280;66004;55.096;38.760;2023-03-01T12:46:28;99550.41;;;-1.14;47.91
77079;BME280;66004;55.096;38.760;2023-03-01T12:51:08;99543.50;;;-0.91;47.18
77079;BME280;66004;55.096;38.760;2023-03-01T12:53:40;99552.59;;;-0.91;47.09
77079;BME280;66004;55.096;38.760;2023-03-01T12:56:09;99546.00;;;-0.85;47.29
77079;BME280;66004;55.096;38.760;2023-03-01T12:58:58;99554.25;;;-0.69;46.96
77079;BME280;66004;55.096;38.760;2023-03-01T13:01:56;99544.84;;;-0.68;46.98
77079;BME280;66004;55.096;38.760;2023-03-01T13:17:54;99558.13;;;-0.81;46.72
77079;BME280;66004;55.096;38.760;2023-03-01T13:23:07;99558.13;;;-1.16;47.63
77079;BME280;66004;55.096;38.760;2023-03-01T13:25:34;99558.13;;;-1.22;47.87
77079;BME280;66004;55.096;38.760;2023-03-01T13:29:25;99565.28;;;-1.21;47.92
77079;BME280;66004;55.096;38.760;2023-03-01T13:33:49;99570.81;;;-1.26;47.39
77079;BME280;66004;55.096;38.760;2023-03-01T13:44:21;99565.19;;;-1.57;47.92
77079;BME280;66004;55.096;38.760;2023-03-01T13:46:53;99563.59;;;-1.52;48.24
77079;BME280;66004;55.096;38.760;2023-03-01T13:49:32;99559.16;;;-1.53;48.38
77079;BME280;66004;55.096;38.760;2023-03-01T13:52:01;99557.75;;;-1.61;48.87
77079;BME280;66004;55.096;38.760;2023-03-01T13:54:30;99544.22;;;-1.73;48.68
77079;BME280;66004;55.096;38.760;2023-03-01T13:56:59;99542.53;;;-1.74;48.66
77079;BME280;66004;55.096;38.760;2023-03-01T13:59:26;99550.84;;;-1.69;48.52
77079;BME280;66004;55.096;38.760;2023-03-01T14:01:57;99547.53;;;-1.66;48.65
77079;BME280;66004;55.096;38.760;2023-03-01T14:04:29;99551.91;;;-1.80;48.66
77079;BME280;66004;55.096;38.760;2023-03-01T14:07:22;99553.56;;;-1.84;49.39
77079;BME280;66004;55.096;38.760;2023-03-01T14:09:54;99533.13;;;-1.93;49.21
77079;BME280;66004;55.096;38.760;2023-03-01T14:20:28;99532.50;;;-2.11;49.66
77079;BME280;66004;55.096;38.760;2023-03-01T14:22:58;99533.63;;;-2.07;49.77
77079;BME280;66004;55.096;38.760;2023-03-01T14:25:35;99545.75;;;-2.03;49.72
77079;BME280;66004;55.096;38.760;2023-03-01T14:30:49;99530.25;;;-2.19;50.27
77079;BME280;66004;55.096;38.760;2023-03-01T14:36:04;99528.91;;;-2.17;49.98
77079;BME280;66004;55.096;38.760;2023-03-01T14:38:38;99532.44;;;-2.21;50.21
77079;BME280;66004;55.096;38.760;2023-03-01T14:41:13;99532.97;;;-2.24;50.47
77079;BME280;66004;55.096;38.760;2023-03-01T14:43:44;99533.53;;;-2.27;51.06
77079;BME280;66004;55.096;38.760;2023-03-01T14:46:41;99528.25;;;-2.34;51.02
77079;BME280;66004;55.096;38.760;2023-03-01T14:49:17;99520.72;;;-2.49;51.14
